AirNav   Pilot Hours Calculator
 
 1219 users online  

6GA0 Stoney Point Airfield
Cumming, Georgia, USA

GOING TO CUMMING?


FAA INFORMATION EFFECTIVE 05 DECEMBER 2019

Location

FAA Identifier: 6GA0
Lat/Long: 34-07-57.3520N 084-11-57.7050W
34-07.955867N 084-11.961750W
34.1325978,-84.1993625
(estimated)
Elevation: 1150 ft. / 351 m (estimated)
Variation: 02W (1985)
From city: 5 miles SW of CUMMING, GA
Time zone: UTC -5 (UTC -4 during Daylight Saving Time)
Zip code: 30041

Airport Operations

Airport use: Private use. Permission required prior to landing
Activation date: 09/1979
Control tower: no
ARTCC: ATLANTA CENTER
FSS: MACON FLIGHT SERVICE STATION
Attendance: CONTINUOUS
Wind indicator: yes
Segmented circle: no
Lights: ACTVT MIRL RY 15/33 AND VASI RY 15/33 - 122.725
Beacon: white-green (lighted land airport)
ACTVT BEACON - 122.725

Airport Communications

WX AWOS-3PT at LZU (15 nm SE): 132.275 (770-339-7753)
WX AWOS-3 at CNI (15 nm NW): 119.825 (770-704-6235)
WX ASOS at PDK (16 nm S): PHONE 770-457-1691

Nearby radio navigation aids

VOR radial/distance  VOR name  Freq  Var
PDKr023/16.2PEACHTREE VOR/DME116.6005W
ATLr026/32.4ATLANTA VORTAC116.9005W

 
NDB name  Hdg/Dist  Freq  Var  ID
FLOWERY BRANCH257/15.236503WFKV ..-. -.- ...-
CHERO122/16.041505WDJD -.. .--- -..
CARTERSVILLE101/32.230804WEVZ . ...- --..
BARROW COUNTY296/32.640405WBMW -... -- .--
MONROE319/33.439204WJNM .--- -. --
ALCOVY328/36.637003WVOF ...- --- ..-.

Airport Services

Runway Information

Runway 15/33

Dimensions: 2500 x 100 ft. / 762 x 30 m
Surface: turf
Runway edge lights: medium intensity
RUNWAY 15  RUNWAY 33
Traffic pattern: leftleft

Airport Ownership and Management from official FAA records

Ownership: Privately-owned
Owner: STONEY POINT HOMEOWNERS ASSOC.
2144 STONEY POINT RD
CUMMING, GA 30041
Phone 404-787-7472
Manager: JOHN BERNDSEN
2144 STONEY POINT RD
CUMMING, GA 30041
Phone 404-787-7472

Airport Operational Statistics

Aircraft based on the field: 24
Single engine airplanes: 20
Multi engine airplanes: 1
Gliders airplanes: 1
Ultralights: 2
    

Additional Remarks

HANG GLIDER ACTIVITIES INVOF ARPT.
FOR CD CTC ATLANTA APCH AT 678-364-6131.

Instrument Procedures

There are no published instrument procedures at 6GA0.

Some nearby airports with instrument procedures:

KLZU - Gwinnett County Airport-Briscoe Field (15 nm SE)
KCNI - Cherokee County Airport (15 nm NW)
KPDK - Dekalb-Peachtree Airport (16 nm S)
KGVL - Lee Gilmer Memorial Airport (20 nm NE)
KMGE - Dobbins Air Reserve Base (20 nm SW)
 
Loc | Ops | Rwys | IFR | FBO | Links
Com | Nav | Svcs | Stats | Notes
Area around 6GA0 (Stoney Point Airfield)
 
Road maps at: MapQuest Bing Google
 
Aerial photo
WARNING: Photo may not be current or correct
Aerial photo of 6GA0 (Stoney Point Airfield)
Photo by AirNav, LLC
Photo taken 18-Oct-2010
looking south.

Do you have a better or more recent aerial photo of Stoney Point Airfield that you would like to share? If so, please send us your photo.

 
Sectional chart

 
Airport distance calculator
Flying to Stoney Point Airfield? Find the distance to fly.

From to 6GA0

Sunrise and sunset
Times for 12-Dec-2019
 Local
(UTC-5)
 Zulu
(UTC)
Morning civil twilight07:0612:06
Sunrise07:3412:34
Sunset17:2722:27
Evening civil twilight17:5522:55

Current date and time
Zulu (UTC)  12-Dec-2019 17:55:32
Local (UTC-5)  12-Dec-2019 12:55:32
 
METAR
KLZU 
15nm SE 
121656Z 08015G21KT 10SM CLR 09/M04 A3051 RMK AO2 SLP348 T00891044
KCNI 
15nm NW 
121730Z AUTO 08007G16KT 10SM CLR 10/M06 A3047 RMK AO2
KPDK 
16nm S 
121653Z VRB06KT 10SM CLR 09/M04 A3049 RMK AO2 SLP336 T00941044
KGVL 
20nm NE 
121653Z AUTO 09014KT 10SM CLR 07/M04 A3053 RMK AO2 SLP341 T00721044
KMGE 
20nm SW 
121656Z 09011G19KT 10SM SCT050 SCT250 10/M06 A3047 RMK AO2A SLP326 T00951056 $
KRYY 
21nm W 
121650Z 13014G25KT 10SM CLR 09/M05 A3049 RMK AO2 SLP045 T00941050 PNO $
KJZP 
23nm NW 
121735Z AUTO 16014G23KT 10SM CLR 08/M06 A3046 RMK AO2 T00801062
KFTY 
26nm SW 
121653Z 09012KT 10SM CLR 10/M06 A3048 RMK AO2 SLP325 T01001056
KWDR 
28nm E 
121735Z AUTO 09008G17KT 10SM CLR 09/M06 A3052 RMK AO2
TAF
KPDK 
16nm S 
121139Z 1212/1312 08003KT P6SM SKC FM121500 07010G17KT P6SM FEW100 SCT250 FM122000 09011G20KT P6SM OVC040 FM122200 09010G18KT P6SM VCSH SCT015 OVC030 PROB30 1222/1303 5SM -SHRA OVC025 FM130300 08010KT 6SM SHRA BR OVC010 FM130600 08011KT 5SM SHRA BR OVC005
NOTAMs
Click for the latest NOTAMs
NOTAMs are issued by the DoD/FAA and will open in a separate window not controlled by AirNav.

 

 
 

Would you like to see your business listed on this page?

 If your business provides an interesting product or service to pilots, flight crews, aircraft, or users of the Stoney Point Airfield, you should consider listing it here.  To start the listing process, click on the button below
 
Add a business
 

Other Pages about Stoney Point Airfield

www.sphoa.com
 
Update a link
 
Copyright © AirNav, LLC. All rights reserved. Privacy Policy  Contact